createdAt,value
2017-10-23T00:00:39.285Z,35.30
2017-10-23T00:01:40.012Z,37.50
2017-10-23T00:02:40.027Z,38.00
2017-10-23T00:03:40.425Z,47.40
2017-10-23T00:04:39.458Z,43.60
2017-10-23T00:05:39.702Z,36.60
2017-10-23T00:06:39.859Z,45.50
2017-10-23T00:07:39.919Z,46.90
2017-10-23T00:08:39.632Z,38.30
2017-10-23T00:09:40.687Z,44.40
2017-10-23T00:10:40.186Z,42.60
2017-10-23T00:11:40.302Z,46.50
2017-10-23T00:12:40.155Z,47.50
2017-10-23T00:13:40.521Z,47.60
2017-10-23T00:14:39.699Z,45.10
2017-10-23T00:15:40.033Z,49.40
2017-10-23T00:16:39.537Z,50.90
2017-10-23T00:17:39.697Z,44.80
2017-10-23T00:18:39.533Z,47.30
2017-10-23T00:19:40.052Z,53.30
2017-10-23T00:20:40.132Z,47.00
2017-10-23T00:21:40.274Z,48.50
2017-10-23T00:22:40.642Z,41.60
2017-10-23T00:23:39.411Z,44.50
2017-10-23T00:24:40.219Z,48.60
2017-10-23T00:25:40.840Z,42.60
2017-10-23T00:26:39.710Z,46.00
2017-10-23T00:27:39.913Z,43.10
2017-10-23T00:28:40.001Z,41.70
2017-10-23T00:29:40.075Z,43.90
2017-10-23T00:30:40.614Z,46.70
2017-10-23T00:31:40.326Z,39.90
2017-10-23T00:32:40.326Z,39.50
2017-10-23T00:33:40.174Z,37.10
2017-10-23T00:34:40.399Z,38.70
2017-10-23T00:35:40.664Z,40.70
2017-10-23T00:36:39.808Z,33.70
2017-10-23T00:37:39.831Z,44.70
2017-10-23T00:38:39.743Z,37.00
2017-10-23T00:39:39.577Z,38.10
2017-10-23T00:40:39.571Z,38.90
2017-10-23T00:41:39.799Z,40.70
2017-10-23T00:42:39.668Z,41.80
2017-10-23T00:43:39.858Z,38.60
2017-10-23T00:44:40.231Z,45.80
2017-10-23T00:45:40.509Z,32.80
2017-10-23T00:46:39.727Z,37.80
2017-10-23T00:47:39.525Z,40.80
2017-10-23T00:48:39.378Z,32.90
2017-10-23T00:49:40.551Z,41.10
2017-10-23T00:50:39.419Z,33.20
2017-10-23T00:51:40.325Z,37.20
2017-10-23T00:52:39.353Z,34.40
2017-10-23T00:53:39.590Z,34.50
2017-10-23T00:54:40.006Z,32.90
2017-10-23T00:55:39.908Z,33.00
2017-10-23T00:56:40.656Z,37.50
2017-10-23T00:57:39.980Z,35.70
2017-10-23T00:58:40.183Z,34.70
2017-10-23T00:59:39.953Z,35.30
2017-10-23T01:00:39.788Z,32.80
2017-10-23T01:01:40.546Z,36.00
2017-10-23T01:02:39.455Z,35.10
2017-10-23T01:03:39.832Z,41.80
2017-10-23T01:04:39.874Z,35.20
2017-10-23T01:05:39.952Z,44.50
2017-10-23T01:06:40.547Z,36.50
2017-10-23T01:07:39.582Z,39.50
2017-10-23T01:08:39.797Z,38.00
2017-10-23T01:09:40.035Z,39.80
2017-10-23T01:10:39.952Z,39.10
2017-10-23T01:11:40.142Z,40.80
2017-10-23T01:12:39.901Z,40.40
2017-10-23T01:13:39.703Z,39.90
2017-10-23T01:14:39.686Z,37.60
2017-10-23T01:15:39.869Z,38.50
2017-10-23T01:16:40.143Z,36.60
2017-10-23T01:17:39.880Z,37.50
2017-10-23T01:18:39.689Z,31.70
2017-10-23T01:19:40.090Z,34.50
2017-10-23T01:20:39.520Z,32.00
2017-10-23T01:21:39.318Z,34.80
2017-10-23T01:22:39.983Z,33.50
2017-10-23T01:23:40.237Z,40.40
2017-10-23T01:24:39.658Z,32.90
2017-10-23T01:25:39.733Z,30.50
2017-10-23T01:26:39.554Z,33.10
2017-10-23T01:27:40.118Z,34.40
2017-10-23T01:28:40.228Z,35.40
2017-10-23T01:29:39.976Z,36.70
2017-10-23T01:30:39.743Z,41.80
2017-10-23T01:31:39.997Z,37.90
2017-10-23T01:32:40.278Z,35.00
2017-10-23T01:33:40.195Z,41.00
2017-10-23T01:34:40.287Z,35.70
2017-10-23T01:35:40.047Z,40.60
2017-10-23T01:36:40.560Z,36.50
2017-10-23T01:37:39.517Z,37.00
2017-10-23T01:38:39.700Z,32.00
2017-10-23T01:39:39.779Z,36.50
2017-10-23T01:40:39.535Z,35.10
2017-10-23T01:41:39.646Z,39.70
2017-10-23T01:42:39.432Z,42.90
2017-10-23T01:43:39.506Z,43.70
2017-10-23T01:44:39.943Z,40.50
2017-10-23T01:45:40.138Z,39.40
2017-10-23T01:46:39.899Z,39.90
2017-10-23T01:47:39.420Z,42.20
2017-10-23T01:48:39.705Z,37.10
2017-10-23T01:49:40.913Z,40.40
2017-10-23T01:50:39.975Z,42.30
2017-10-23T01:51:39.618Z,40.70
2017-10-23T01:52:39.865Z,46.10
2017-10-23T01:53:39.699Z,41.80
2017-10-23T01:54:39.431Z,37.20
2017-10-23T01:55:39.950Z,40.00
2017-10-23T01:56:39.676Z,36.50
2017-10-23T01:57:39.571Z,36.00
2017-10-23T01:58:39.892Z,36.40
2017-10-23T01:59:39.726Z,37.90
2017-10-23T02:00:40.347Z,31.90
2017-10-23T02:01:39.978Z,32.80
2017-10-23T02:02:40.257Z,34.90
2017-10-23T02:03:40.413Z,34.20
2017-10-23T02:04:39.461Z,37.50
2017-10-23T02:05:39.750Z,33.90
2017-10-23T02:06:39.772Z,32.30
2017-10-23T02:07:39.975Z,31.50
2017-10-23T02:08:39.902Z,34.40
2017-10-23T02:09:39.609Z,40.50
2017-10-23T02:10:39.359Z,37.50
2017-10-23T02:11:39.488Z,32.80
2017-10-23T02:12:39.909Z,36.80
2017-10-23T02:13:39.577Z,35.40
2017-10-23T02:14:39.359Z,36.90
2017-10-23T02:15:39.047Z,31.60
2017-10-23T02:16:40.353Z,35.60
2017-10-23T02:17:40.018Z,31.90
2017-10-23T02:18:39.965Z,39.10
2017-10-23T02:19:39.609Z,36.20
2017-10-23T02:20:39.786Z,34.40
2017-10-23T02:21:39.973Z,42.50
2017-10-23T02:22:39.974Z,38.90
2017-10-23T02:23:40.134Z,40.30
2017-10-23T02:24:40.309Z,36.50
2017-10-23T02:25:40.046Z,44.00
2017-10-23T02:26:39.653Z,35.40
2017-10-23T02:27:40.643Z,43.90
2017-10-23T02:28:39.847Z,38.50
2017-10-23T02:29:39.645Z,39.90
2017-10-23T02:30:39.913Z,37.60
2017-10-23T02:31:39.522Z,36.40
2017-10-23T02:32:39.856Z,44.30
2017-10-23T02:33:40.587Z,35.60
2017-10-23T02:34:39.628Z,32.40
2017-10-23T02:35:39.353Z,40.20
2017-10-23T02:36:39.141Z,38.60
2017-10-23T02:37:40.237Z,41.20
2017-10-23T02:38:39.545Z,33.80
2017-10-23T02:39:40.634Z,43.00
2017-10-23T02:40:39.918Z,38.80
2017-10-23T02:41:39.851Z,37.20
2017-10-23T02:42:39.556Z,32.10
2017-10-23T02:43:39.682Z,38.40
2017-10-23T02:44:39.356Z,39.20
2017-10-23T02:45:40.857Z,50.40
2017-10-23T02:46:39.671Z,33.30
2017-10-23T02:47:39.791Z,36.20
2017-10-23T02:48:39.497Z,34.70
2017-10-23T02:49:39.268Z,40.20
2017-10-23T02:50:40.702Z,38.20
2017-10-23T02:51:39.711Z,37.20
2017-10-23T02:52:39.666Z,34.90
2017-10-23T02:53:39.440Z,35.60
2017-10-23T02:54:39.345Z,36.30
2017-10-23T02:55:39.375Z,33.00
2017-10-23T02:56:39.486Z,33.60
2017-10-23T02:57:39.079Z,33.50
2017-10-23T02:58:40.033Z,32.40
2017-10-23T02:59:39.995Z,42.70
2017-10-23T03:00:39.701Z,42.30
2017-10-23T03:01:40.201Z,42.20
2017-10-23T03:02:40.067Z,34.40
2017-10-23T03:03:40.164Z,34.50
2017-10-23T03:04:39.931Z,31.80
2017-10-23T03:05:39.459Z,40.40
2017-10-23T03:06:39.191Z,42.90
2017-10-23T03:07:40.693Z,39.80
2017-10-23T03:08:39.669Z,42.80
2017-10-23T03:09:40.032Z,40.00
2017-10-23T03:10:39.676Z,43.80
2017-10-23T03:11:39.362Z,38.90
2017-10-23T03:12:39.527Z,37.20
2017-10-23T03:13:39.496Z,41.60
2017-10-23T03:14:39.383Z,37.10
2017-10-23T03:15:39.187Z,36.80
2017-10-23T03:16:40.023Z,40.60
2017-10-23T03:17:39.632Z,36.80
2017-10-23T03:18:39.721Z,34.60
2017-10-23T03:19:39.475Z,43.10
2017-10-23T03:20:39.729Z,39.60
2017-10-23T03:21:39.400Z,38.20
2017-10-23T03:22:39.089Z,36.00
2017-10-23T03:23:40.240Z,37.50
2017-10-23T03:24:39.952Z,47.50
2017-10-23T03:25:39.732Z,44.80
2017-10-23T03:26:39.851Z,42.00
2017-10-23T03:27:39.980Z,53.20
2017-10-23T03:28:39.987Z,47.60
2017-10-23T03:29:40.413Z,47.00
2017-10-23T03:30:39.061Z,49.00
2017-10-23T03:31:39.983Z,42.30
2017-10-23T03:32:39.763Z,41.00
2017-10-23T03:33:39.732Z,48.60
2017-10-23T03:34:39.445Z,44.30
2017-10-23T03:35:39.558Z,38.90
2017-10-23T03:36:39.888Z,41.90
2017-10-23T03:37:39.760Z,47.30
2017-10-23T03:38:39.672Z,43.70
2017-10-23T03:39:39.445Z,42.20
2017-10-23T03:40:39.670Z,42.70
2017-10-23T03:41:39.341Z,43.70
2017-10-23T03:42:39.426Z,38.00
2017-10-23T03:43:39.417Z,44.50
2017-10-23T03:44:39.596Z,42.70
2017-10-23T03:45:39.604Z,39.90
2017-10-23T03:46:39.634Z,44.00
2017-10-23T03:47:38.968Z,45.80
2017-10-23T03:48:39.684Z,47.10
2017-10-23T03:50:31.079Z,52.50
2017-10-23T03:51:32.620Z,50.90
2017-10-23T03:52:31.400Z,52.60
2017-10-23T03:53:31.969Z,50.60
2017-10-23T03:54:31.693Z,53.80
2017-10-23T03:55:31.851Z,66.10
2017-10-23T03:56:31.953Z,50.80
2017-10-23T03:57:32.035Z,58.60
2017-10-23T03:58:32.141Z,57.90
2017-10-23T03:59:32.417Z,61.20
2017-10-23T04:00:32.527Z,52.30
2017-10-23T04:01:31.270Z,57.30
2017-10-23T04:02:31.581Z,50.90
2017-10-23T04:03:32.375Z,55.70
2017-10-23T04:04:31.304Z,55.60
2017-10-23T04:05:31.011Z,55.80
2017-10-23T04:06:31.814Z,60.80
2017-10-23T04:07:31.972Z,54.80
2017-10-23T04:08:31.988Z,52.20
2017-10-23T04:09:31.657Z,54.70
2017-10-23T04:10:31.715Z,54.00
2017-10-23T04:11:31.549Z,63.60
2017-10-23T04:12:31.838Z,46.60
2017-10-23T04:13:32.111Z,45.70
2017-10-23T04:14:32.201Z,51.40
2017-10-23T04:15:32.267Z,47.90
2017-10-23T04:16:30.970Z,54.30
2017-10-23T04:17:32.123Z,54.90
2017-10-23T04:18:31.906Z,55.10
2017-10-23T04:19:32.343Z,46.70
2017-10-23T04:20:31.559Z,53.80
2017-10-23T04:21:31.157Z,49.50
2017-10-23T04:22:31.925Z,50.40
2017-10-23T04:23:31.635Z,51.90
2017-10-23T04:24:31.316Z,57.50
2017-10-23T04:25:32.011Z,47.50
2017-10-23T04:26:31.788Z,60.90
2017-10-23T04:27:31.564Z,46.40
2017-10-23T04:28:31.332Z,53.00
2017-10-23T04:29:30.990Z,52.80
2017-10-23T04:30:32.133Z,52.60
2017-10-23T04:31:32.408Z,54.20
2017-10-23T04:32:31.092Z,59.20
2017-10-23T04:33:32.311Z,50.70
2017-10-23T04:34:31.346Z,56.20
2017-10-23T04:35:31.159Z,54.00
2017-10-23T04:36:31.604Z,57.00
2017-10-23T04:37:31.904Z,47.10
2017-10-23T04:38:31.941Z,54.50
2017-10-23T04:39:31.678Z,47.60
2017-10-23T04:40:31.883Z,51.40
2017-10-23T04:41:31.985Z,55.30
2017-10-23T04:42:32.548Z,53.40
2017-10-23T04:43:31.845Z,53.70
2017-10-23T04:44:31.469Z,52.50
2017-10-23T04:45:31.597Z,50.30
2017-10-23T04:46:31.723Z,44.30
2017-10-23T04:47:31.731Z,43.90
2017-10-23T04:48:31.877Z,50.50
2017-10-23T04:49:31.564Z,44.90
2017-10-23T04:50:31.754Z,53.80
2017-10-23T04:51:31.281Z,56.90
2017-10-23T04:52:31.903Z,47.60
2017-10-23T04:53:32.441Z,47.80
2017-10-23T04:54:31.221Z,41.20
2017-10-23T04:55:31.793Z,44.90
2017-10-23T04:56:31.423Z,46.20
2017-10-23T04:57:31.299Z,44.90
2017-10-23T04:58:32.865Z,37.50
2017-10-23T04:59:32.075Z,42.10
2017-10-23T05:00:31.463Z,42.80
2017-10-23T05:01:31.248Z,39.80
2017-10-23T05:02:31.565Z,38.00
2017-10-23T05:03:31.173Z,35.00
2017-10-23T05:04:31.269Z,40.30
2017-10-23T05:05:32.108Z,35.70
2017-10-23T05:06:31.824Z,41.20
2017-10-23T05:07:31.960Z,43.30
2017-10-23T05:08:31.669Z,41.80
2017-10-23T05:09:32.252Z,41.10
2017-10-23T05:10:32.100Z,40.40
2017-10-23T05:11:32.218Z,42.30
2017-10-23T05:12:31.313Z,43.30
2017-10-23T05:13:31.473Z,40.50
2017-10-23T05:14:31.682Z,44.70
2017-10-23T05:15:31.903Z,48.10
2017-10-23T05:16:32.030Z,43.80
2017-10-23T05:17:32.139Z,48.40
2017-10-23T05:18:32.319Z,40.30
2017-10-23T05:19:31.293Z,48.20
2017-10-23T05:20:31.449Z,41.20
2017-10-23T05:21:31.966Z,46.00
2017-10-23T05:22:31.948Z,40.90
2017-10-23T05:23:31.945Z,40.80
2017-10-23T05:24:32.062Z,51.00
2017-10-23T05:25:31.820Z,40.30
2017-10-23T05:26:32.553Z,47.00
2017-10-23T05:27:31.433Z,38.50
2017-10-23T05:28:31.223Z,43.10
2017-10-23T05:29:31.281Z,43.10
2017-10-23T05:30:31.373Z,42.40
2017-10-23T05:31:31.728Z,35.90
2017-10-23T05:32:32.279Z,49.60
2017-10-23T05:33:31.620Z,37.60
2017-10-23T05:34:31.736Z,41.20
2017-10-23T05:35:31.644Z,37.30
2017-10-23T05:36:31.649Z,36.80
2017-10-23T05:37:31.796Z,40.80
2017-10-23T05:38:32.402Z,43.90
2017-10-23T05:39:32.255Z,36.50
2017-10-23T05:40:31.747Z,43.10
2017-10-23T05:41:31.992Z,44.90
2017-10-23T05:42:31.733Z,38.10
2017-10-23T05:43:31.788Z,44.50
2017-10-23T05:44:32.236Z,38.30
2017-10-23T05:45:31.347Z,41.40
2017-10-23T05:46:31.438Z,37.50
2017-10-23T05:47:31.125Z,39.40
2017-10-23T05:48:31.762Z,36.40
2017-10-23T05:49:31.636Z,35.00
2017-10-23T05:50:31.973Z,34.40
2017-10-23T05:51:31.715Z,32.40
2017-10-23T05:52:31.788Z,38.60
2017-10-23T05:53:32.048Z,32.30
2017-10-23T05:54:31.834Z,34.90
2017-10-23T05:55:31.553Z,38.70
2017-10-23T05:56:31.836Z,36.80
2017-10-23T05:57:31.747Z,39.00
2017-10-23T05:58:31.571Z,27.30
2017-10-23T05:59:32.290Z,34.60
2017-10-23T06:00:31.507Z,28.30
2017-10-23T06:01:31.776Z,33.20
2017-10-23T06:02:32.273Z,33.10
2017-10-23T06:03:31.029Z,29.20
2017-10-23T06:04:32.258Z,32.70
2017-10-23T06:05:31.097Z,32.10
2017-10-23T06:06:32.317Z,29.80
2017-10-23T06:07:31.086Z,28.70
2017-10-23T06:08:32.282Z,35.70
2017-10-23T06:09:31.439Z,30.00
2017-10-23T06:10:31.405Z,31.70
2017-10-23T06:11:31.329Z,30.30
2017-10-23T06:12:31.463Z,28.40
2017-10-23T06:13:31.246Z,27.80
2017-10-23T06:14:31.366Z,28.20
2017-10-23T06:15:31.882Z,30.00
2017-10-23T06:16:31.918Z,27.70
2017-10-23T06:17:32.124Z,33.20
2017-10-23T06:18:30.997Z,26.90
2017-10-23T06:19:32.541Z,25.90
2017-10-23T06:20:31.790Z,29.40
2017-10-23T06:21:31.714Z,22.40
2017-10-23T06:22:31.861Z,27.50
2017-10-23T06:23:31.649Z,22.30
2017-10-23T06:24:32.379Z,28.90
2017-10-23T06:25:31.192Z,28.90
2017-10-23T06:26:32.299Z,25.30
2017-10-23T06:27:31.213Z,25.30
2017-10-23T06:28:30.900Z,18.90
2017-10-23T06:29:32.689Z,22.00
2017-10-23T06:30:32.043Z,27.30
2017-10-23T06:31:31.606Z,25.20
2017-10-23T06:32:31.232Z,31.40
2017-10-23T06:33:31.410Z,24.10
2017-10-23T06:34:31.800Z,26.70
2017-10-23T06:35:32.476Z,21.70
2017-10-23T06:36:31.867Z,25.30
2017-10-23T06:37:32.119Z,21.60
2017-10-23T06:38:31.822Z,24.50
2017-10-23T06:39:32.176Z,25.60
2017-10-23T06:40:31.846Z,25.70
2017-10-23T06:41:32.145Z,20.10
2017-10-23T06:42:32.574Z,27.90
2017-10-23T06:43:31.964Z,22.90
2017-10-23T06:44:32.301Z,19.50
2017-10-23T06:45:31.384Z,24.40
2017-10-23T06:46:32.353Z,22.00
2017-10-23T06:47:31.727Z,19.40
2017-10-23T06:48:31.610Z,26.90
2017-10-23T06:49:31.421Z,21.20
2017-10-23T06:50:31.603Z,22.20
2017-10-23T06:51:31.941Z,25.40
2017-10-23T06:52:32.679Z,16.80
2017-10-23T06:53:31.510Z,17.50
2017-10-23T06:54:31.790Z,20.80
2017-10-23T06:55:31.864Z,23.00
2017-10-23T06:56:32.009Z,24.80
2017-10-23T06:57:32.662Z,18.10
2017-10-23T06:58:31.917Z,19.90
2017-10-23T06:59:31.863Z,22.10
2017-10-23T07:00:31.999Z,25.00
2017-10-23T07:01:32.233Z,20.90
2017-10-23T07:02:31.476Z,23.40
2017-10-23T07:03:32.017Z,23.70
2017-10-23T07:04:31.602Z,20.80
2017-10-23T07:05:31.424Z,20.60
2017-10-23T07:06:31.171Z,21.90
2017-10-23T07:07:31.088Z,18.80
2017-10-23T07:08:32.849Z,22.50
2017-10-23T07:09:32.105Z,19.00
2017-10-23T07:10:31.644Z,26.90
2017-10-23T07:11:31.607Z,21.60
2017-10-23T07:12:31.685Z,18.20
2017-10-23T07:13:31.548Z,18.40
2017-10-23T07:14:31.785Z,19.40
2017-10-23T07:15:32.784Z,18.40
2017-10-23T07:16:32.077Z,15.30
2017-10-23T07:17:31.545Z,19.10
2017-10-23T07:18:32.015Z,18.40
2017-10-23T07:19:32.206Z,23.00
2017-10-23T07:20:31.604Z,19.50
2017-10-23T07:21:31.772Z,22.70
2017-10-23T07:22:32.287Z,19.40
2017-10-23T07:23:31.404Z,14.50
2017-10-23T07:24:31.408Z,17.90
2017-10-23T07:25:31.448Z,20.70
2017-10-23T07:26:31.703Z,19.60
2017-10-23T07:27:32.124Z,20.50
2017-10-23T07:28:31.086Z,13.70
2017-10-23T07:29:31.920Z,16.00
2017-10-23T07:30:31.342Z,28.30
2017-10-23T07:31:31.247Z,15.60
2017-10-23T07:32:31.904Z,19.50
2017-10-23T07:33:32.030Z,18.50
2017-10-23T07:34:32.420Z,21.00
2017-10-23T07:35:31.873Z,20.30
2017-10-23T07:36:32.029Z,20.10
2017-10-23T07:37:32.296Z,20.00
2017-10-23T07:38:31.598Z,18.40
2017-10-23T07:39:31.826Z,21.20
2017-10-23T07:40:32.454Z,16.00
2017-10-23T07:41:31.334Z,19.00
2017-10-23T07:42:32.072Z,18.20
2017-10-23T07:43:31.011Z,16.50
2017-10-23T07:44:31.898Z,13.90
2017-10-23T07:45:32.979Z,22.60
2017-10-23T07:46:31.297Z,21.00
2017-10-23T07:47:31.144Z,21.10
2017-10-23T07:48:31.026Z,22.90
2017-10-23T07:49:31.923Z,21.50
2017-10-23T07:50:32.154Z,20.10
2017-10-23T07:51:32.027Z,14.00
2017-10-23T07:52:31.080Z,12.50
2017-10-23T07:53:31.914Z,17.40
2017-10-23T07:54:31.789Z,20.50
2017-10-23T07:55:32.135Z,14.80
2017-10-23T07:56:31.912Z,14.10
2017-10-23T07:57:32.347Z,17.60
2017-10-23T07:58:31.542Z,17.50
2017-10-23T07:59:31.430Z,19.80
2017-10-23T08:00:31.347Z,13.20
2017-10-23T08:01:31.660Z,15.80
2017-10-23T08:02:31.516Z,17.30
2017-10-23T08:03:31.290Z,13.70
2017-10-23T08:04:31.777Z,19.30
2017-10-23T08:05:31.983Z,17.10
2017-10-23T08:06:32.521Z,17.20
2017-10-23T08:07:31.543Z,20.50
2017-10-23T08:08:31.591Z,15.00
2017-10-23T08:09:31.560Z,14.50
2017-10-23T08:10:31.155Z,12.10
2017-10-23T08:11:30.951Z,11.50
2017-10-23T08:12:32.724Z,16.70
2017-10-23T08:13:32.133Z,14.60
2017-10-23T08:14:31.154Z,17.50
2017-10-23T08:15:31.686Z,7.20
2017-10-23T08:16:32.055Z,14.60
2017-10-23T08:17:31.377Z,20.20
2017-10-23T08:18:31.608Z,14.20
2017-10-23T08:19:32.451Z,11.20
2017-10-23T08:20:31.565Z,21.20
2017-10-23T08:21:31.787Z,12.80
2017-10-23T08:22:32.148Z,14.20
2017-10-23T08:23:31.913Z,14.80
2017-10-23T08:24:32.224Z,19.30
2017-10-23T08:25:31.185Z,19.80
2017-10-23T08:26:31.102Z,13.10
2017-10-23T08:27:31.314Z,15.60
2017-10-23T08:28:32.022Z,12.30
2017-10-23T08:29:30.959Z,14.90
2017-10-23T08:30:32.328Z,12.80
2017-10-23T08:31:31.177Z,12.00
2017-10-23T08:32:32.787Z,15.70
2017-10-23T08:33:34.035Z,10.60
2017-10-23T08:34:30.979Z,18.10
2017-10-23T08:35:31.787Z,20.30
2017-10-23T08:36:31.439Z,9.80
2017-10-23T08:37:31.523Z,15.20
2017-10-23T08:38:31.956Z,12.80
2017-10-23T08:39:32.005Z,12.40
2017-10-23T08:40:31.960Z,15.20
2017-10-23T08:41:32.442Z,12.90
2017-10-23T08:42:31.178Z,17.20
2017-10-23T08:43:31.699Z,14.70
2017-10-23T08:44:31.618Z,19.40
2017-10-23T08:45:31.823Z,13.20
2017-10-23T08:46:31.715Z,9.90
2017-10-23T08:47:32.880Z,14.20
2017-10-23T08:48:31.925Z,12.80
2017-10-23T08:49:32.390Z,14.50
2017-10-23T08:50:31.286Z,11.30
2017-10-23T08:51:31.544Z,18.30
2017-10-23T08:52:31.537Z,16.60
2017-10-23T08:53:31.391Z,16.70
2017-10-23T08:54:31.307Z,13.80
2017-10-23T08:55:31.700Z,20.00
2017-10-23T08:56:32.091Z,11.80
2017-10-23T08:57:31.216Z,16.00
2017-10-23T08:58:31.661Z,11.30
2017-10-23T08:59:31.901Z,13.70
2017-10-23T09:00:32.155Z,18.60
2017-10-23T09:01:31.922Z,15.10
2017-10-23T09:02:32.733Z,16.40
2017-10-23T09:03:30.995Z,16.80
2017-10-23T09:04:31.911Z,13.80
2017-10-23T09:05:32.271Z,13.90
2017-10-23T09:06:31.717Z,21.00
2017-10-23T09:07:31.550Z,15.30
2017-10-23T09:08:31.943Z,13.20
2017-10-23T09:09:32.349Z,9.60
2017-10-23T09:10:31.660Z,12.70
2017-10-23T09:11:31.497Z,15.30
2017-10-23T09:12:31.316Z,16.10
2017-10-23T09:13:31.973Z,15.80
2017-10-23T09:14:31.918Z,14.50
2017-10-23T09:15:31.836Z,15.70
2017-10-23T09:16:31.775Z,10.20
2017-10-23T09:17:32.321Z,11.40
2017-10-23T09:18:31.679Z,17.00
2017-10-23T09:19:31.618Z,11.10
2017-10-23T09:20:31.597Z,17.10
2017-10-23T09:21:32.007Z,15.30
2017-10-23T09:22:31.556Z,14.00
2017-10-23T09:23:31.852Z,15.40
2017-10-23T09:24:31.519Z,14.50
2017-10-23T09:25:31.873Z,12.40
2017-10-23T09:26:31.048Z,14.20
2017-10-23T09:27:31.516Z,16.50
2017-10-23T09:28:32.502Z,11.80
2017-10-23T09:29:31.491Z,13.20
2017-10-23T09:30:31.450Z,14.10
2017-10-23T09:31:31.465Z,12.70
2017-10-23T09:32:31.468Z,11.60
2017-10-23T09:33:31.706Z,10.80
2017-10-23T09:34:32.049Z,9.00
2017-10-23T09:35:31.297Z,11.90
2017-10-23T09:36:31.359Z,13.00
2017-10-23T09:37:32.016Z,21.10
2017-10-23T09:38:31.549Z,11.90
2017-10-23T09:39:30.951Z,15.40
2017-10-23T09:40:32.779Z,14.70
2017-10-23T09:41:31.853Z,15.40
2017-10-23T09:42:32.214Z,8.90
2017-10-23T09:43:31.224Z,6.70
2017-10-23T09:44:31.658Z,13.10
2017-10-23T09:45:31.238Z,11.40
2017-10-23T09:46:32.222Z,11.00
2017-10-23T09:47:31.428Z,15.90
2017-10-23T09:48:31.608Z,13.50
2017-10-23T09:49:32.185Z,11.90
2017-10-23T09:50:32.032Z,10.50
2017-10-23T09:51:32.013Z,15.60
2017-10-23T09:52:32.277Z,13.40
2017-10-23T09:53:31.966Z,17.10
2017-10-23T09:54:32.438Z,10.60
2017-10-23T09:55:31.793Z,13.20
2017-10-23T09:56:31.773Z,18.80
2017-10-23T09:57:32.021Z,11.40
2017-10-23T09:58:31.644Z,15.70
2017-10-23T09:59:32.636Z,9.20
2017-10-23T10:00:32.029Z,8.80
2017-10-23T10:01:31.000Z,11.40
2017-10-23T10:02:31.849Z,14.30
2017-10-23T10:03:31.066Z,12.20
2017-10-23T10:04:31.636Z,8.80
2017-10-23T10:05:32.062Z,13.60
2017-10-23T10:06:31.827Z,6.20
2017-10-23T10:07:32.627Z,11.10
2017-10-23T10:08:31.933Z,11.30
2017-10-23T10:09:30.993Z,13.20
2017-10-23T10:10:32.395Z,9.50
2017-10-23T10:11:31.321Z,13.60
2017-10-23T10:12:31.789Z,11.60
2017-10-23T10:13:32.858Z,13.30
2017-10-23T10:14:31.599Z,14.30
2017-10-23T10:15:32.015Z,16.70
2017-10-23T10:16:31.705Z,15.40
2017-10-23T10:17:31.632Z,10.50
2017-10-23T10:18:31.532Z,11.30
2017-10-23T10:19:32.300Z,8.60
2017-10-23T10:20:32.870Z,13.90
2017-10-23T10:21:31.783Z,14.60
2017-10-23T10:22:31.845Z,7.80
2017-10-23T10:23:32.038Z,10.40
2017-10-23T10:24:31.078Z,8.70
2017-10-23T10:25:32.396Z,9.80
2017-10-23T10:26:31.889Z,11.50
2017-10-23T10:27:31.816Z,10.50
2017-10-23T10:28:32.367Z,8.00
2017-10-23T10:29:31.937Z,11.40
2017-10-23T10:30:31.383Z,11.00
2017-10-23T10:31:31.679Z,10.00
2017-10-23T10:32:32.213Z,10.50
2017-10-23T10:33:31.168Z,9.40
2017-10-23T10:34:31.552Z,13.50
2017-10-23T10:35:31.444Z,7.00
2017-10-23T10:36:31.851Z,11.60
2017-10-23T10:37:32.076Z,14.80
2017-10-23T10:38:31.101Z,14.30
2017-10-23T10:39:32.081Z,8.50
2017-10-23T10:40:31.688Z,10.40
2017-10-23T10:41:32.259Z,6.90
2017-10-23T10:42:31.786Z,15.20
2017-10-23T10:43:32.128Z,10.90
2017-10-23T10:44:31.675Z,8.70
2017-10-23T10:45:31.865Z,10.90
2017-10-23T10:46:32.599Z,12.50
2017-10-23T10:47:31.684Z,7.50
2017-10-23T10:48:32.382Z,12.30
2017-10-23T10:49:31.867Z,11.70
2017-10-23T10:50:31.919Z,11.50
2017-10-23T10:51:30.794Z,13.70
2017-10-23T10:52:32.210Z,15.40
2017-10-23T10:53:31.319Z,13.60
2017-10-23T10:54:31.878Z,14.20
2017-10-23T10:55:32.202Z,10.50
2017-10-23T10:56:31.146Z,16.80
2017-10-23T10:57:32.043Z,7.80
2017-10-23T10:58:31.721Z,14.10
2017-10-23T10:59:32.134Z,15.50
2017-10-23T11:00:31.638Z,10.90
2017-10-23T11:01:31.848Z,11.00
2017-10-23T11:02:32.226Z,12.50
2017-10-23T11:03:32.128Z,11.20
2017-10-23T11:04:31.138Z,16.20
2017-10-23T11:05:31.534Z,13.80
2017-10-23T11:06:31.867Z,14.20
2017-10-23T11:07:32.056Z,12.10
2017-10-23T11:08:31.599Z,16.40
2017-10-23T11:09:31.745Z,11.40
2017-10-23T11:10:32.229Z,18.60
2017-10-23T11:11:31.782Z,15.90
2017-10-23T11:12:32.349Z,11.60
2017-10-23T11:13:31.763Z,16.50
2017-10-23T11:14:31.748Z,13.70
2017-10-23T11:15:31.798Z,13.80
2017-10-23T11:16:31.849Z,17.10
2017-10-23T11:17:32.276Z,10.40
2017-10-23T11:18:32.155Z,14.60
2017-10-23T11:19:32.652Z,14.70
2017-10-23T11:20:31.989Z,10.50
2017-10-23T11:21:30.921Z,9.10
2017-10-23T11:22:31.653Z,16.50
2017-10-23T11:23:32.491Z,10.30
2017-10-23T11:24:31.456Z,13.60
2017-10-23T11:25:31.544Z,16.20
2017-10-23T11:26:31.670Z,9.20
2017-10-23T11:27:31.739Z,8.20
2017-10-23T11:28:32.150Z,16.80
2017-10-23T11:29:31.663Z,14.10
2017-10-23T11:30:32.129Z,19.80
2017-10-23T11:31:31.181Z,14.90
2017-10-23T11:32:31.787Z,18.40
2017-10-23T11:33:32.230Z,14.80
2017-10-23T11:34:31.704Z,15.20
2017-10-23T11:35:31.368Z,25.70
2017-10-23T11:36:31.954Z,17.90
2017-10-23T11:37:31.557Z,18.80
2017-10-23T11:38:31.863Z,13.60
2017-10-23T11:39:31.271Z,20.60
2017-10-23T11:40:31.399Z,18.80
2017-10-23T11:41:31.893Z,23.80
2017-10-23T11:42:31.482Z,15.50
2017-10-23T11:43:31.216Z,14.10
2017-10-23T11:44:32.117Z,14.00
2017-10-23T11:45:31.160Z,27.80
2017-10-23T11:46:31.238Z,14.60
2017-10-23T11:47:31.882Z,14.60
2017-10-23T11:48:31.840Z,20.90
2017-10-23T11:49:32.517Z,23.40
2017-10-23T11:50:31.916Z,15.00
2017-10-23T11:51:31.392Z,20.60
2017-10-23T11:52:31.597Z,18.10
2017-10-23T11:53:31.704Z,22.80
2017-10-23T11:54:31.372Z,17.30
2017-10-23T11:55:32.157Z,24.30
2017-10-23T11:56:31.396Z,25.30
2017-10-23T11:57:31.342Z,14.20
2017-10-23T11:58:31.550Z,17.30
2017-10-23T11:59:31.033Z,15.80
2017-10-23T12:00:31.609Z,21.60
2017-10-23T12:01:31.975Z,12.60
2017-10-23T12:02:31.269Z,13.90
2017-10-23T12:03:30.755Z,18.80
2017-10-23T12:04:31.666Z,12.80
2017-10-23T12:05:33.603Z,20.50
2017-10-23T12:06:31.660Z,16.20
2017-10-23T12:07:31.305Z,14.50
2017-10-23T12:08:31.603Z,10.90
2017-10-23T12:09:31.578Z,14.90
2017-10-23T12:10:31.518Z,14.10
2017-10-23T12:11:32.124Z,16.70
2017-10-23T12:12:31.494Z,15.90
2017-10-23T12:13:31.571Z,15.00
2017-10-23T12:14:32.103Z,12.90
2017-10-23T12:15:31.569Z,14.90
2017-10-23T12:16:32.466Z,14.10
2017-10-23T12:17:31.419Z,19.80
2017-10-23T12:18:31.434Z,13.00
2017-10-23T12:19:31.610Z,16.20
2017-10-23T12:20:31.722Z,18.40
2017-10-23T12:21:31.648Z,10.30
2017-10-23T12:22:32.528Z,10.50
2017-10-23T12:23:31.982Z,22.60
2017-10-23T12:24:31.567Z,15.70
2017-10-23T12:25:32.639Z,18.20
2017-10-23T12:26:31.917Z,15.70
2017-10-23T12:27:30.877Z,17.10
2017-10-23T12:28:32.578Z,17.80
2017-10-23T12:29:31.699Z,20.90
2017-10-23T12:30:32.366Z,21.40
2017-10-23T12:31:31.230Z,14.30
2017-10-23T12:32:58.140Z,10.40
2017-10-23T12:33:58.686Z,9.90
2017-10-23T12:34:58.061Z,14.10
2017-10-23T12:35:58.431Z,14.20
2017-10-23T12:36:58.446Z,14.80
2017-10-23T12:37:58.489Z,15.50
2017-10-23T12:38:58.470Z,16.80
2017-10-23T12:39:58.601Z,11.00
2017-10-23T12:40:57.565Z,11.90
2017-10-23T12:41:57.918Z,13.70
2017-10-23T12:42:58.509Z,14.20
2017-10-23T12:43:59.027Z,14.70
2017-10-23T12:44:58.103Z,13.60
2017-10-23T12:45:58.508Z,17.40
2017-10-23T12:46:57.708Z,17.80
2017-10-23T12:47:57.895Z,16.40
2017-10-23T12:48:58.666Z,12.80
2017-10-23T12:49:58.184Z,16.10
2017-10-23T12:50:59.493Z,12.70
2017-10-23T12:51:59.383Z,14.20
2017-10-23T12:52:57.481Z,12.70
2017-10-23T12:53:58.472Z,13.20
2017-10-23T12:54:58.572Z,10.00